sensor_id;sensor_type;location;lat;lon;timestamp;pressure;altitude;pressure_sealevel;temperature;humidity
39773;BME280;25451;51.960;6.250;2023-01-29T00:01:20;102859.16;;;2.96;73.23
39773;BME280;25451;51.960;6.250;2023-01-29T00:03:49;102849.53;;;2.92;73.59
39773;BME280;25451;51.960;6.250;2023-01-29T00:06:14;102865.88;;;3.02;73.17
39773;BME280;25451;51.960;6.250;2023-01-29T00:08:40;102863.31;;;3.00;73.47
39773;BME280;25451;51.960;6.250;2023-01-29T00:11:07;102845.78;;;2.93;73.35
39773;BME280;25451;51.960;6.250;2023-01-29T00:13:33;102820.97;;;2.77;73.30
39773;BME280;25451;51.960;6.250;2023-01-29T00:15:59;102843.34;;;2.90;73.43
39773;BME280;25451;51.960;6.250;2023-01-29T00:18:24;102844.94;;;2.93;73.50
39773;BME280;25451;51.960;6.250;2023-01-29T00:20:51;102854.69;;;2.95;73.65
39773;BME280;25451;51.960;6.250;2023-01-29T00:23:16;102865.31;;;2.98;73.72
39773;BME280;25451;51.960;6.250;2023-01-29T00:25:42;102852.25;;;2.92;73.59
39773;BME280;25451;51.960;6.250;2023-01-29T00:28:08;102844.34;;;2.89;73.66
39773;BME280;25451;51.960;6.250;2023-01-29T00:30:35;102851.13;;;2.95;73.77
39773;BME280;25451;51.960;6.250;2023-01-29T00:33:00;102843.22;;;2.92;73.38
39773;BME280;25451;51.960;6.250;2023-01-29T00:35:26;102842.78;;;2.96;73.79
39773;BME280;25451;51.960;6.250;2023-01-29T00:37:51;102835.91;;;2.92;73.62
39773;BME280;25451;51.960;6.250;2023-01-29T00:40:17;102830.59;;;2.91;73.39
39773;BME280;25451;51.960;6.250;2023-01-29T00:42:45;102832.59;;;2.98;73.47
39773;BME280;25451;51.960;6.250;2023-01-29T00:45:29;102828.97;;;2.98;73.58
39773;BME280;25451;51.960;6.250;2023-01-29T00:47:54;102816.38;;;2.97;73.77
39773;BME280;25451;51.960;6.250;2023-01-29T00:50:20;102809.34;;;2.94;73.80
39773;BME280;25451;51.960;6.250;2023-01-29T00:52:45;102812.78;;;2.96;73.50
39773;BME280;25451;51.960;6.250;2023-01-29T00:55:12;102790.38;;;2.83;73.54
39773;BME280;25451;51.960;6.250;2023-01-29T00:57:38;102801.31;;;2.93;73.88
39773;BME280;25451;51.960;6.250;2023-01-29T01:00:05;102798.41;;;2.94;73.52
39773;BME280;25451;51.960;6.250;2023-01-29T01:02:31;102794.97;;;2.92;73.77
39773;BME280;25451;51.960;6.250;2023-01-29T01:05:16;102807.31;;;2.96;73.50
39773;BME280;25451;51.960;6.250;2023-01-29T01:07:47;102803.00;;;2.94;73.81
39773;BME280;25451;51.960;6.250;2023-01-29T01:10:15;102799.88;;;2.89;73.45
39773;BME280;25451;51.960;6.250;2023-01-29T01:12:56;102796.56;;;2.85;73.79
39773;BME280;25451;51.960;6.250;2023-01-29T01:15:24;102812.06;;;2.94;73.71
39773;BME280;25451;51.960;6.250;2023-01-29T01:17:55;102801.44;;;2.91;73.76
39773;BME280;25451;51.960;6.250;2023-01-29T01:20:22;102802.00;;;2.85;73.48
39773;BME280;25451;51.960;6.250;2023-01-29T01:22:48;102808.19;;;2.87;73.40
39773;BME280;25451;51.960;6.250;2023-01-29T01:25:14;102797.16;;;2.79;73.95
39773;BME280;25451;51.960;6.250;2023-01-29T01:27:39;102818.81;;;2.90;73.58
39773;BME280;25451;51.960;6.250;2023-01-29T01:30:10;102818.81;;;2.90;73.77
39773;BME280;25451;51.960;6.250;2023-01-29T01:32:36;102809.59;;;2.91;73.86
39773;BME280;25451;51.960;6.250;2023-01-29T01:35:02;102813.22;;;2.92;73.78
39773;BME280;25451;51.960;6.250;2023-01-29T01:37:27;102802.72;;;2.87;73.78
39773;BME280;25451;51.960;6.250;2023-01-29T01:39:52;102805.91;;;2.92;73.64
39773;BME280;25451;51.960;6.250;2023-01-29T01:42:22;102801.03;;;2.86;73.81
39773;BME280;25451;51.960;6.250;2023-01-29T01:45:02;102808.34;;;2.86;73.47
39773;BME280;25451;51.960;6.250;2023-01-29T01:47:48;102810.63;;;2.90;73.55
39773;BME280;25451;51.960;6.250;2023-01-29T01:50:50;102801.19;;;2.85;73.82
39773;BME280;25451;51.960;6.250;2023-01-29T01:53:17;102804.47;;;2.88;73.56
39773;BME280;25451;51.960;6.250;2023-01-29T01:55:49;102778.22;;;2.78;73.91
39773;BME280;25451;51.960;6.250;2023-01-29T01:58:25;102795.72;;;2.85;74.12
39773;BME280;25451;51.960;6.250;2023-01-29T02:00:52;102790.38;;;2.83;73.65
39773;BME280;25451;51.960;6.250;2023-01-29T02:03:18;102807.34;;;2.87;73.48
39773;BME280;25451;51.960;6.250;2023-01-29T02:06:05;102806.75;;;2.83;73.58
39773;BME280;25451;51.960;6.250;2023-01-29T02:09:03;102817.22;;;2.88;73.71
39773;BME280;25451;51.960;6.250;2023-01-29T02:11:49;102798.88;;;2.80;73.77
39773;BME280;25451;51.960;6.250;2023-01-29T02:14:14;102810.34;;;2.84;73.91
39773;BME280;25451;51.960;6.250;2023-01-29T02:16:40;102819.41;;;2.84;73.77
39773;BME280;25451;51.960;6.250;2023-01-29T02:19:12;102815.66;;;2.85;73.83
39773;BME280;25451;51.960;6.250;2023-01-29T02:27:14;102823.00;;;2.85;73.79
39773;BME280;25451;51.960;6.250;2023-01-29T02:32:40;102806.75;;;2.83;73.84
39773;BME280;25451;51.960;6.250;2023-01-29T02:38:03;102817.53;;;2.85;73.72
39773;BME280;25451;51.960;6.250;2023-01-29T02:40:38;102822.13;;;2.84;73.64
39773;BME280;25451;51.960;6.250;2023-01-29T02:46:03;102808.94;;;2.80;73.67
39773;BME280;25451;51.960;6.250;2023-01-29T02:51:17;102809.94;;;2.79;73.72
39773;BME280;25451;51.960;6.250;2023-01-29T02:57:20;102816.22;;;2.79;74.09
39773;BME280;25451;51.960;6.250;2023-01-29T03:00:11;102823.44;;;2.80;73.61
39773;BME280;25451;51.960;6.250;2023-01-29T03:02:48;102819.28;;;2.76;73.63
39773;BME280;25451;51.960;6.250;2023-01-29T03:05:20;102813.09;;;2.74;73.83
39773;BME280;25451;51.960;6.250;2023-01-29T03:07:51;102826.16;;;2.80;73.92
39773;BME280;25451;51.960;6.250;2023-01-29T03:10:25;102820.69;;;2.80;73.89
39773;BME280;25451;51.960;6.250;2023-01-29T03:13:18;102805.78;;;2.75;73.47
39773;BME280;25451;51.960;6.250;2023-01-29T03:15:48;102812.53;;;2.80;73.45
39773;BME280;25451;51.960;6.250;2023-01-29T03:18:28;102820.69;;;2.80;73.90
39773;BME280;25451;51.960;6.250;2023-01-29T03:21:19;102817.81;;;2.82;73.48
39773;BME280;25451;51.960;6.250;2023-01-29T03:24:05;102804.34;;;2.80;73.65
39773;BME280;25451;51.960;6.250;2023-01-29T03:26:51;102796.31;;;2.79;73.71
39773;BME280;25451;51.960;6.250;2023-01-29T03:29:37;102795.59;;;2.77;73.57
39773;BME280;25451;51.960;6.250;2023-01-29T03:32:24;102794.41;;;2.79;73.61
39773;BME280;25451;51.960;6.250;2023-01-29T03:34:57;102781.81;;;2.78;73.84
39773;BME280;25451;51.960;6.250;2023-01-29T03:37:28;102772.91;;;2.76;73.62
39773;BME280;25451;51.960;6.250;2023-01-29T03:39:57;102772.75;;;2.78;73.81
39773;BME280;25451;51.960;6.250;2023-01-29T03:42:33;102769.16;;;2.77;73.78
39773;BME280;25451;51.960;6.250;2023-01-29T03:45:16;102776.34;;;2.78;73.57
39773;BME280;25451;51.960;6.250;2023-01-29T03:53:00;102758.56;;;2.74;73.61
39773;BME280;25451;51.960;6.250;2023-01-29T03:56:03;102761.84;;;2.78;73.80
39773;BME280;25451;51.960;6.250;2023-01-29T03:58:47;102763.72;;;2.77;73.82
39773;BME280;25451;51.960;6.250;2023-01-29T04:04:21;102770.91;;;2.78;73.77
39773;BME280;25451;51.960;6.250;2023-01-29T04:06:49;102756.25;;;2.79;73.67
39773;BME280;25451;51.960;6.250;2023-01-29T04:09:36;102760.00;;;2.78;73.86
39773;BME280;25451;51.960;6.250;2023-01-29T04:12:06;102761.13;;;2.76;73.81
39773;BME280;25451;51.960;6.250;2023-01-29T04:14:34;102754.81;;;2.75;73.57
39773;BME280;25451;51.960;6.250;2023-01-29T04:17:04;102768.19;;;2.78;73.87
39773;BME280;25451;51.960;6.250;2023-01-29T04:19:32;102773.63;;;2.78;73.84
39773;BME280;25451;51.960;6.250;2023-01-29T04:22:06;102751.25;;;2.75;73.69
39773;BME280;25451;51.960;6.250;2023-01-29T04:24:34;102749.38;;;2.75;73.80
39773;BME280;25451;51.960;6.250;2023-01-29T04:27:42;102750.94;;;2.78;73.61
39773;BME280;25451;51.960;6.250;2023-01-29T04:30:22;102731.84;;;2.78;73.76
39773;BME280;25451;51.960;6.250;2023-01-29T04:33:03;102732.72;;;2.78;74.00
39773;BME280;25451;51.960;6.250;2023-01-29T04:41:25;102710.47;;;2.73;73.52
39773;BME280;25451;51.960;6.250;2023-01-29T04:49:17;102712.50;;;2.71;73.65
39773;BME280;25451;51.960;6.250;2023-01-29T04:52:11;102722.09;;;2.75;73.87
39773;BME280;25451;51.960;6.250;2023-01-29T04:54:47;102715.81;;;2.75;73.97
39773;BME280;25451;51.960;6.250;2023-01-29T04:57:21;102715.22;;;2.71;73.89
39773;BME280;25451;51.960;6.250;2023-01-29T05:00:14;102716.97;;;2.72;73.79
39773;BME280;25451;51.960;6.250;2023-01-29T05:02:39;102694.59;;;2.69;73.86
39773;BME280;25451;51.960;6.250;2023-01-29T05:05:07;102693.72;;;2.68;74.10
39773;BME280;25451;51.960;6.250;2023-01-29T05:07:34;102694.59;;;2.69;73.68
39773;BME280;25451;51.960;6.250;2023-01-29T05:10:06;102699.56;;;2.73;73.89
39773;BME280;25451;51.960;6.250;2023-01-29T05:12:32;102704.91;;;2.75;73.89
39773;BME280;25451;51.960;6.250;2023-01-29T05:15:01;102702.63;;;2.70;73.77
39773;BME280;25451;51.960;6.250;2023-01-29T05:17:28;102703.00;;;2.75;73.77
39773;BME280;25451;51.960;6.250;2023-01-29T05:19:55;102694.44;;;2.70;73.64
39773;BME280;25451;51.960;6.250;2023-01-29T05:22:21;102702.03;;;2.76;73.89
39773;BME280;25451;51.960;6.250;2023-01-29T05:24:50;102688.81;;;2.72;74.12
39773;BME280;25451;51.960;6.250;2023-01-29T05:27:28;102694.84;;;2.75;74.13
39773;BME280;25451;51.960;6.250;2023-01-29T05:30:14;102705.63;;;2.77;73.71
39773;BME280;25451;51.960;6.250;2023-01-29T05:32:39;102686.41;;;2.69;73.74
39773;BME280;25451;51.960;6.250;2023-01-29T05:35:05;102700.28;;;2.75;74.01
39773;BME280;25451;51.960;6.250;2023-01-29T05:37:30;102706.44;;;2.77;73.82
39773;BME280;25451;51.960;6.250;2023-01-29T05:39:56;102697.72;;;2.74;73.71
39773;BME280;25451;51.960;6.250;2023-01-29T05:42:21;102702.63;;;2.70;73.72
39773;BME280;25451;51.960;6.250;2023-01-29T05:44:46;102733.59;;;2.79;73.72
39773;BME280;25451;51.960;6.250;2023-01-29T05:47:12;102719.84;;;2.71;73.67
39773;BME280;25451;51.960;6.250;2023-01-29T05:49:37;102721.53;;;2.72;73.76
39773;BME280;25451;51.960;6.250;2023-01-29T05:52:03;102730.72;;;2.80;73.90
39773;BME280;25451;51.960;6.250;2023-01-29T05:54:28;102692.31;;;2.64;73.71
39773;BME280;25451;51.960;6.250;2023-01-29T05:56:53;102722.09;;;2.75;73.68
39773;BME280;25451;51.960;6.250;2023-01-29T05:59:18;102733.59;;;2.79;73.89
39773;BME280;25451;51.960;6.250;2023-01-29T06:01:44;102733.59;;;2.79;73.69
39773;BME280;25451;51.960;6.250;2023-01-29T06:04:09;102721.81;;;2.78;73.84
39773;BME280;25451;51.960;6.250;2023-01-29T06:06:34;102720.50;;;2.82;73.76
39773;BME280;25451;51.960;6.250;2023-01-29T06:09:00;102710.38;;;2.75;73.68
39773;BME280;25451;51.960;6.250;2023-01-29T06:11:25;102701.00;;;2.77;73.79
39773;BME280;25451;51.960;6.250;2023-01-29T06:13:52;102705.03;;;2.83;73.70
39773;BME280;25451;51.960;6.250;2023-01-29T06:16:17;102696.25;;;2.79;73.83
39773;BME280;25451;51.960;6.250;2023-01-29T06:18:42;102697.84;;;2.82;73.90
39773;BME280;25451;51.960;6.250;2023-01-29T06:21:11;102704.00;;;2.84;73.99
39773;BME280;25451;51.960;6.250;2023-01-29T06:23:37;102701.13;;;2.85;73.84
39773;BME280;25451;51.960;6.250;2023-01-29T06:26:05;102681.91;;;2.77;73.65
39773;BME280;25451;51.960;6.250;2023-01-29T06:28:31;102690.69;;;2.81;73.85
39773;BME280;25451;51.960;6.250;2023-01-29T06:30:57;102696.53;;;2.86;73.84
39773;BME280;25451;51.960;6.250;2023-01-29T06:33:23;102694.13;;;2.83;73.90
39773;BME280;25451;51.960;6.250;2023-01-29T06:35:54;102684.03;;;2.83;73.85
39773;BME280;25451;51.960;6.250;2023-01-29T06:38:20;102680.91;;;2.78;73.93
39773;BME280;25451;51.960;6.250;2023-01-29T06:40:45;102683.94;;;2.75;73.81
39773;BME280;25451;51.960;6.250;2023-01-29T06:43:10;102694.41;;;2.80;74.13
39773;BME280;25451;51.960;6.250;2023-01-29T06:45:36;102691.50;;;2.81;73.84
39773;BME280;25451;51.960;6.250;2023-01-29T06:48:01;102677.91;;;2.72;73.62
39773;BME280;25451;51.960;6.250;2023-01-29T06:50:26;102693.41;;;2.81;73.80
39773;BME280;25451;51.960;6.250;2023-01-29T06:52:52;102686.53;;;2.77;73.99
39773;BME280;25451;51.960;6.250;2023-01-29T06:55:17;102685.22;;;2.81;73.98
39773;BME280;25451;51.960;6.250;2023-01-29T06:57:42;102684.63;;;2.77;73.91
39773;BME280;25451;51.960;6.250;2023-01-29T07:00:08;102698.28;;;2.77;73.75
39773;BME280;25451;51.960;6.250;2023-01-29T07:02:34;102702.41;;;2.81;73.81
39773;BME280;25451;51.960;6.250;2023-01-29T07:04:59;102674.50;;;2.70;74.11
39773;BME280;25451;51.960;6.250;2023-01-29T07:07:24;102693.69;;;2.78;73.59
39773;BME280;25451;51.960;6.250;2023-01-29T07:09:50;102689.97;;;2.79;74.04
39773;BME280;25451;51.960;6.250;2023-01-29T07:12:15;102682.78;;;2.78;73.90
39773;BME280;25451;51.960;6.250;2023-01-29T07:14:40;102669.59;;;2.73;73.85
39773;BME280;25451;51.960;6.250;2023-01-29T07:17:06;102677.66;;;2.75;73.91
39773;BME280;25451;51.960;6.250;2023-01-29T07:19:31;102691.66;;;2.80;74.03
39773;BME280;25451;51.960;6.250;2023-01-29T07:21:56;102686.06;;;2.81;74.00
39773;BME280;25451;51.960;6.250;2023-01-29T07:24:21;102666.16;;;2.71;74.09
39773;BME280;25451;51.960;6.250;2023-01-29T07:26:47;102656.72;;;2.66;73.85
39773;BME280;25451;51.960;6.250;2023-01-29T07:29:12;102666.41;;;2.78;73.90
39773;BME280;25451;51.960;6.250;2023-01-29T07:31:37;102669.00;;;2.79;74.03
39773;BME280;25451;51.960;6.250;2023-01-29T07:34:02;102680.59;;;2.81;74.03
39773;BME280;25451;51.960;6.250;2023-01-29T07:36:28;102676.34;;;2.79;74.08
39773;BME280;25451;51.960;6.250;2023-01-29T07:38:54;102677.66;;;2.75;73.79
39773;BME280;25451;51.960;6.250;2023-01-29T07:41:19;102690.25;;;2.76;74.02
39773;BME280;25451;51.960;6.250;2023-01-29T07:43:44;102699.84;;;2.80;73.79
39773;BME280;25451;51.960;6.250;2023-01-29T07:46:10;102700.56;;;2.82;74.07
39773;BME280;25451;51.960;6.250;2023-01-29T07:48:35;102695.41;;;2.79;73.91
39773;BME280;25451;51.960;6.250;2023-01-29T07:51:00;102695.41;;;2.79;73.68
39773;BME280;25451;51.960;6.250;2023-01-29T07:53:27;102697.69;;;2.83;74.00
39773;BME280;25451;51.960;6.250;2023-01-29T07:55:52;102672.03;;;2.76;73.79
39773;BME280;25451;51.960;6.250;2023-01-29T07:58:18;102676.19;;;2.80;73.70
39773;BME280;25451;51.960;6.250;2023-01-29T08:00:43;102659.81;;;2.80;74.11
39773;BME280;25451;51.960;6.250;2023-01-29T08:03:14;102655.94;;;2.83;73.69
39773;BME280;25451;51.960;6.250;2023-01-29T08:05:40;102662.22;;;2.83;73.93
39773;BME280;25451;51.960;6.250;2023-01-29T08:08:06;102657.09;;;2.80;73.97
39773;BME280;25451;51.960;6.250;2023-01-29T08:10:32;102668.25;;;2.87;73.65
39773;BME280;25451;51.960;6.250;2023-01-29T08:12:59;102664.50;;;2.88;73.94
39773;BME280;25451;51.960;6.250;2023-01-29T08:15:25;102659.94;;;2.88;73.73
39773;BME280;25451;51.960;6.250;2023-01-29T08:17:51;102648.16;;;2.88;74.01
39773;BME280;25451;51.960;6.250;2023-01-29T08:20:17;102641.81;;;2.87;73.55
39773;BME280;25451;51.960;6.250;2023-01-29T08:22:43;102630.78;;;2.89;73.85
39773;BME280;25451;51.960;6.250;2023-01-29T08:25:09;102612.16;;;2.84;73.63
39773;BME280;25451;51.960;6.250;2023-01-29T08:27:34;102608.41;;;2.85;73.74
39773;BME280;25451;51.960;6.250;2023-01-29T08:29:59;102616.69;;;2.93;73.72
39773;BME280;25451;51.960;6.250;2023-01-29T08:32:25;102602.09;;;2.85;73.63
39773;BME280;25451;51.960;6.250;2023-01-29T08:34:50;102620.00;;;2.97;73.64
39773;BME280;25451;51.960;6.250;2023-01-29T08:37:15;102628.00;;;2.98;73.62
39773;BME280;25451;51.960;6.250;2023-01-29T08:39:40;102629.59;;;3.01;73.86
39773;BME280;25451;51.960;6.250;2023-01-29T08:42:06;102597.50;;;2.85;73.80
39773;BME280;25451;51.960;6.250;2023-01-29T08:44:31;102601.09;;;2.86;73.33
39773;BME280;25451;51.960;6.250;2023-01-29T08:46:56;102623.97;;;3.02;73.80
39773;BME280;25451;51.960;6.250;2023-01-29T08:49:22;102606.91;;;3.00;73.52
39773;BME280;25451;51.960;6.250;2023-01-29T08:51:47;102605.16;;;2.99;73.77
39773;BME280;25451;51.960;6.250;2023-01-29T08:54:13;102589.97;;;2.97;73.60
39773;BME280;25451;51.960;6.250;2023-01-29T08:56:38;102589.81;;;2.98;73.48
39773;BME280;25451;51.960;6.250;2023-01-29T08:59:03;102585.38;;;2.97;73.73
39773;BME280;25451;51.960;6.250;2023-01-29T09:01:28;102612.75;;;3.05;73.47
39773;BME280;25451;51.960;6.250;2023-01-29T09:03:54;102604.81;;;3.12;73.77
39773;BME280;25451;51.960;6.250;2023-01-29T09:06:19;102597.72;;;3.01;73.62
39773;BME280;25451;51.960;6.250;2023-01-29T09:08:45;102617.44;;;3.13;73.50
39773;BME280;25451;51.960;6.250;2023-01-29T09:11:10;102612.16;;;3.11;73.43
39773;BME280;25451;51.960;6.250;2023-01-29T09:13:36;102609.09;;;3.14;73.43
39773;BME280;25451;51.960;6.250;2023-01-29T09:16:03;102605.75;;;3.20;73.53
39773;BME280;25451;51.960;6.250;2023-01-29T09:18:29;102612.25;;;3.19;73.40
39773;BME280;25451;51.960;6.250;2023-01-29T09:20:55;102609.19;;;3.22;73.52
39773;BME280;25451;51.960;6.250;2023-01-29T09:23:21;102600.31;;;3.20;73.35
39773;BME280;25451;51.960;6.250;2023-01-29T09:25:46;102595.19;;;3.17;73.45
39773;BME280;25451;51.960;6.250;2023-01-29T09:28:12;102594.75;;;3.12;73.26
39773;BME280;25451;51.960;6.250;2023-01-29T09:30:37;102612.47;;;3.26;73.46
39773;BME280;25451;51.960;6.250;2023-01-29T09:33:06;102612.34;;;3.27;73.53
39773;BME280;25451;51.960;6.250;2023-01-29T09:35:32;102614.03;;;3.28;73.34
39773;BME280;25451;51.960;6.250;2023-01-29T09:37:58;102619.91;;;3.33;73.43
39773;BME280;25451;51.960;6.250;2023-01-29T09:40:40;102619.91;;;3.33;73.69
39773;BME280;25451;51.960;6.250;2023-01-29T09:43:58;102625.38;;;3.33;73.44
39773;BME280;25451;51.960;6.250;2023-01-29T09:49:05;102614.75;;;3.30;73.71
39773;BME280;25451;51.960;6.250;2023-01-29T09:51:36;102625.59;;;3.40;73.02
39773;BME280;25451;51.960;6.250;2023-01-29T09:56:32;102607.19;;;3.42;72.96
39773;BME280;25451;51.960;6.250;2023-01-29T09:58:59;102615.63;;;3.49;73.19
39773;BME280;25451;51.960;6.250;2023-01-29T10:04:06;102613.47;;;3.52;73.28
39773;BME280;25451;51.960;6.250;2023-01-29T10:20:56;102608.63;;;3.64;73.16
39773;BME280;25451;51.960;6.250;2023-01-29T10:23:31;102599.19;;;3.58;73.07
39773;BME280;25451;51.960;6.250;2023-01-29T10:25:58;102592.69;;;3.59;72.88
39773;BME280;25451;51.960;6.250;2023-01-29T10:28:40;102594.34;;;3.70;72.94
39773;BME280;25451;51.960;6.250;2023-01-29T10:31:25;102600.66;;;3.70;73.07
39773;BME280;25451;51.960;6.250;2023-01-29T10:34:00;102593.47;;;3.69;73.25
39773;BME280;25451;51.960;6.250;2023-01-29T10:36:44;102589.88;;;3.69;73.08
39773;BME280;25451;51.960;6.250;2023-01-29T10:39:21;102601.38;;;3.72;73.03
39773;BME280;25451;51.960;6.250;2023-01-29T10:44:29;102584.81;;;3.74;72.99
39773;BME280;25451;51.960;6.250;2023-01-29T10:52:37;102576.69;;;3.82;73.10
39773;BME280;25451;51.960;6.250;2023-01-29T11:00:40;102564.13;;;3.89;73.38
39773;BME280;25451;51.960;6.250;2023-01-29T11:06:00;102561.94;;;3.92;72.95
39773;BME280;25451;51.960;6.250;2023-01-29T11:08:33;102545.84;;;3.89;73.26
39773;BME280;25451;51.960;6.250;2023-01-29T11:11:12;102544.38;;;3.95;73.15
39773;BME280;25451;51.960;6.250;2023-01-29T11:13:44;102532.19;;;3.89;73.26
39773;BME280;25451;51.960;6.250;2023-01-29T11:16:10;102519.88;;;3.85;73.05
39773;BME280;25451;51.960;6.250;2023-01-29T11:18:53;102525.06;;;3.96;72.81
39773;BME280;25451;51.960;6.250;2023-01-29T11:21:20;102518.44;;;3.99;73.08
39773;BME280;25451;51.960;6.250;2023-01-29T11:23:45;102516.41;;;4.01;73.02
39773;BME280;25451;51.960;6.250;2023-01-29T11:26:12;102511.63;;;4.03;73.39
39773;BME280;25451;51.960;6.250;2023-01-29T11:28:48;102497.81;;;4.04;73.03
39773;BME280;25451;51.960;6.250;2023-01-29T11:33:44;102493.91;;;4.07;73.17
39773;BME280;25451;51.960;6.250;2023-01-29T11:36:31;102495.28;;;4.11;73.10
39773;BME280;25451;51.960;6.250;2023-01-29T11:39:09;102480.94;;;4.09;72.98
39773;BME280;25451;51.960;6.250;2023-01-29T11:41:44;102481.28;;;4.14;73.08
39773;BME280;25451;51.960;6.250;2023-01-29T11:45:01;102474.25;;;4.11;72.96
39773;BME280;25451;51.960;6.250;2023-01-29T11:49:52;102470.06;;;4.17;72.87
39773;BME280;25451;51.960;6.250;2023-01-29T11:52:24;102458.44;;;4.15;72.81
39773;BME280;25451;51.960;6.250;2023-01-29T11:54:58;102452.09;;;4.14;72.89
39773;BME280;25451;51.960;6.250;2023-01-29T11:59:57;102452.13;;;4.22;72.79
39773;BME280;25451;51.960;6.250;2023-01-29T12:02:32;102434.53;;;4.17;72.98
39773;BME280;25451;51.960;6.250;2023-01-29T12:05:14;102445.50;;;4.25;72.75
39773;BME280;25451;51.960;6.250;2023-01-29T12:07:43;102434.56;;;4.25;72.71
39773;BME280;25451;51.960;6.250;2023-01-29T12:15:39;102411.13;;;4.22;72.69
39773;BME280;25451;51.960;6.250;2023-01-29T12:20:52;102395.25;;;4.26;72.85
39773;BME280;25451;51.960;6.250;2023-01-29T12:23:40;102415.97;;;4.37;72.73
39773;BME280;25451;51.960;6.250;2023-01-29T12:26:14;102406.91;;;4.36;72.73
39773;BME280;25451;51.960;6.250;2023-01-29T12:34:04;102389.31;;;4.39;72.75
39773;BME280;25451;51.960;6.250;2023-01-29T12:36:45;102386.41;;;4.40;72.70
39773;BME280;25451;51.960;6.250;2023-01-29T12:39:18;102382.34;;;4.44;72.64
39773;BME280;25451;51.960;6.250;2023-01-29T12:42:03;102369.00;;;4.41;72.70
39773;BME280;25451;51.960;6.250;2023-01-29T12:44:39;102374.50;;;4.49;72.74
39773;BME280;25451;51.960;6.250;2023-01-29T12:47:14;102362.00;;;4.47;72.81
39773;BME280;25451;51.960;6.250;2023-01-29T12:49:42;102356.22;;;4.50;72.58
39773;BME280;25451;51.960;6.250;2023-01-29T12:52:16;102347.34;;;4.48;72.80
39773;BME280;25451;51.960;6.250;2023-01-29T12:54:51;102357.06;;;4.58;72.58
39773;BME280;25451;51.960;6.250;2023-01-29T12:57:23;102344.94;;;4.53;72.69
39773;BME280;25451;51.960;6.250;2023-01-29T13:00:00;102344.44;;;4.57;72.50
39773;BME280;25451;51.960;6.250;2023-01-29T13:05:35;102351.97;;;4.63;72.55
39773;BME280;25451;51.960;6.250;2023-01-29T13:08:07;102344.63;;;4.64;72.34
39773;BME280;25451;51.960;6.250;2023-01-29T13:10:41;102334.19;;;4.59;72.46
39773;BME280;25451;51.960;6.250;2023-01-29T13:13:21;102338.97;;;4.65;72.36
39773;BME280;25451;51.960;6.250;2023-01-29T13:15:49;102329.41;;;4.69;72.63
39773;BME280;25451;51.960;6.250;2023-01-29T13:18:30;102326.66;;;4.69;72.22
39773;BME280;25451;51.960;6.250;2023-01-29T13:20:59;102326.34;;;4.72;72.66
39773;BME280;25451;51.960;6.250;2023-01-29T13:23:39;102307.22;;;4.72;72.32
39773;BME280;25451;51.960;6.250;2023-01-29T13:26:06;102302.75;;;4.71;72.49
39773;BME280;25451;51.960;6.250;2023-01-29T13:28:32;102306.53;;;4.78;72.34
39773;BME280;25451;51.960;6.250;2023-01-29T13:33:42;102297.28;;;4.79;72.11
39773;BME280;25451;51.960;6.250;2023-01-29T13:36:19;102291.81;;;4.79;72.02
39773;BME280;25451;51.960;6.250;2023-01-29T13:39:03;102295.91;;;4.83;72.59
39773;BME280;25451;51.960;6.250;2023-01-29T13:41:34;102301.03;;;4.86;72.31
39773;BME280;25451;51.960;6.250;2023-01-29T13:44:01;102286.69;;;4.84;72.21
39773;BME280;25451;51.960;6.250;2023-01-29T13:46:29;102289.06;;;4.87;72.19
39773;BME280;25451;51.960;6.250;2023-01-29T13:48:56;102271.97;;;4.85;72.38
39773;BME280;25451;51.960;6.250;2023-01-29T13:51:34;102268.91;;;4.88;72.05
39773;BME280;25451;51.960;6.250;2023-01-29T13:54:06;102259.31;;;4.84;72.45
39773;BME280;25451;51.960;6.250;2023-01-29T13:59:04;102262.38;;;4.89;72.44
39773;BME280;25451;51.960;6.250;2023-01-29T14:01:59;102263.94;;;4.92;72.29
39773;BME280;25451;51.960;6.250;2023-01-29T14:04:27;102254.19;;;4.89;72.28
39773;BME280;25451;51.960;6.250;2023-01-29T14:06:58;102264.44;;;4.87;72.39
39773;BME280;25451;51.960;6.250;2023-01-29T14:12:39;102258.09;;;4.87;72.32
39773;BME280;25451;51.960;6.250;2023-01-29T14:15:18;102269.59;;;4.90;72.22
39773;BME280;25451;51.960;6.250;2023-01-29T14:18:03;102275.56;;;4.94;72.11
39773;BME280;25451;51.960;6.250;2023-01-29T14:20:36;102269.22;;;4.93;72.50
39773;BME280;25451;51.960;6.250;2023-01-29T14:23:02;102270.09;;;4.94;72.34
39773;BME280;25451;51.960;6.250;2023-01-29T14:25:31;102254.84;;;4.91;72.28
39773;BME280;25451;51.960;6.250;2023-01-29T14:27:59;102251.78;;;4.94;72.12
39773;BME280;25451;51.960;6.250;2023-01-29T14:30:29;102238.81;;;4.88;72.58
39773;BME280;25451;51.960;6.250;2023-01-29T14:32:55;102248.38;;;4.92;72.46
39773;BME280;25451;51.960;6.250;2023-01-29T14:35:24;102241.84;;;4.93;72.35
39773;BME280;25451;51.960;6.250;2023-01-29T14:37:53;102239.81;;;4.95;72.50
39773;BME280;25451;51.960;6.250;2023-01-29T14:40:25;102226.50;;;4.92;72.55
39773;BME280;25451;51.960;6.250;2023-01-29T14:52:58;102216.75;;;4.90;72.42
39773;BME280;25451;51.960;6.250;2023-01-29T14:55:36;102229.91;;;4.94;72.48
39773;BME280;25451;51.960;6.250;2023-01-29T14:58:04;102229.56;;;4.89;72.36
39773;BME280;25451;51.960;6.250;2023-01-29T15:00:36;102230.25;;;4.91;72.35
39773;BME280;25451;51.960;6.250;2023-01-29T15:03:12;102238.13;;;4.94;72.83
39773;BME280;25451;51.960;6.250;2023-01-29T15:05:39;102233.66;;;4.93;72.56
39773;BME280;25451;51.960;6.250;2023-01-29T15:10:59;102222.41;;;4.88;72.29
39773;BME280;25451;51.960;6.250;2023-01-29T15:14:00;102226.63;;;4.91;72.45
39773;BME280;25451;51.960;6.250;2023-01-29T15:17:06;102220.34;;;4.90;72.16
39773;BME280;25451;51.960;6.250;2023-01-29T15:19:43;102214.19;;;4.88;72.21
39773;BME280;25451;51.960;6.250;2023-01-29T15:22:14;102209.72;;;4.87;72.39
39773;BME280;25451;51.960;6.250;2023-01-29T15:24:41;102205.13;;;4.88;72.18